Time;durP1;ratioP1;P1;durP2;ratioP2;P2;SDS_P1;SDS_P2;PMS_P1;PMS_P2;Temp;Humidity;BMP_temperature;BMP_pressure;BME280_temperature;BME280_humidity;BME280_pressure;Samples;Min_cycle;Max_cycle;Signal;HPM_P1;HPM_P2
2022/07/18 00:00:28;;;;;;;1.48;0.57;;;;;;;22.47;36.61;102315.97;16135012;19;129196;-65
2022/07/18 00:05:50;;;;;;;1.80;0.40;;;;;;;22.47;37.01;102322.41;16136644;19;129310;-65
2022/07/18 00:11:12;;;;;;;1.90;0.70;;;;;;;22.48;37.08;102314.91;16132699;19;130881;-66
2022/07/18 00:16:34;;;;;;;0.95;0.50;;;;;;;22.45;36.83;102313.44;16133433;19;130522;-66
2022/07/18 00:21:56;;;;;;;1.13;0.50;;;;;;;22.46;36.84;102314.28;16134450;19;129141;-66
2022/07/18 00:27:18;;;;;;;2.25;0.80;;;;;;;22.44;36.86;102311.75;16136822;19;129026;-65
2022/07/18 00:32:40;;;;;;;1.05;0.70;;;;;;;22.44;37.05;102295.84;16135377;19;129454;-66
2022/07/18 00:38:02;;;;;;;2.17;0.55;;;;;;;22.45;36.90;102296.72;16129860;19;129821;-65
2022/07/18 00:43:24;;;;;;;0.50;0.40;;;;;;;22.44;36.79;102300.59;16136404;19;130479;-65
2022/07/18 00:48:46;;;;;;;0.95;0.50;;;;;;;22.44;36.92;102289.44;16134676;19;131049;-65
2022/07/18 00:54:07;;;;;;;1.30;0.50;;;;;;;22.44;37.14;102284.69;16132901;19;130622;-65
2022/07/18 01:05:10;;;;;;;0.82;0.50;;;;;;;22.43;36.93;102279.38;16131897;19;129660;-65
2022/07/18 01:10:32;;;;;;;0.45;0.30;;;;;;;22.42;37.04;102272.94;16133061;19;130420;-65
2022/07/18 01:15:53;;;;;;;0.95;0.45;;;;;;;22.41;36.95;102268.44;16132299;19;129191;-65
2022/07/18 01:21:16;;;;;;;0.43;0.30;;;;;;;22.41;36.94;102270.38;16133148;19;129403;-65
2022/07/18 01:26:38;;;;;;;0.75;0.38;;;;;;;22.41;37.12;102270.38;16130795;19;129266;-65
2022/07/18 01:32:07;;;;;;;1.83;0.40;;;;;;;22.41;37.00;102268.44;16132170;19;129176;-65
2022/07/18 01:37:29;;;;;;;1.30;0.40;;;;;;;22.40;36.86;102257.53;16141845;19;130095;-65
2022/07/18 01:42:51;;;;;;;1.35;0.40;;;;;;;22.40;37.19;102247.22;16147190;19;129322;-65
2022/07/18 01:48:13;;;;;;;0.45;0.40;;;;;;;22.39;37.00;102253.91;16145749;19;130311;-65
2022/07/18 01:53:34;;;;;;;1.27;0.45;;;;;;;22.39;36.85;102253.91;16149640;19;128958;-65
2022/07/18 01:58:56;;;;;;;1.73;0.50;;;;;;;22.39;36.96;102256.69;16141846;19;130086;-66
2022/07/18 02:04:18;;;;;;;0.68;0.43;;;;;;;22.37;37.02;102260.78;16145880;19;129950;-65
2022/07/18 02:09:40;;;;;;;0.63;0.40;;;;;;;22.39;36.94;102250.25;16141309;19;129952;-65
2022/07/18 02:15:04;;;;;;;0.52;0.47;;;;;;;22.38;37.07;102252.22;16143419;19;129842;-65
2022/07/18 02:20:26;;;;;;;4.03;0.40;;;;;;;22.36;37.07;102234.88;16142084;19;132901;-65
2022/07/18 02:25:47;;;;;;;0.80;0.40;;;;;;;22.36;36.95;102232.06;16142677;19;129679;-65
2022/07/18 02:31:09;;;;;;;3.67;0.50;;;;;;;22.36;37.06;102234.00;16143545;19;129659;-65
2022/07/18 02:36:31;;;;;;;0.90;0.40;;;;;;;22.36;36.94;102231.22;16140640;19;129268;-65
2022/07/18 02:41:54;;;;;;;3.30;0.40;;;;;;;22.35;36.83;102229.50;16141561;19;129984;-65
2022/07/18 02:47:15;;;;;;;0.40;0.30;;;;;;;22.35;37.14;102224.78;16140308;19;129614;-65
2022/07/18 02:52:39;;;;;;;1.13;0.45;;;;;;;22.35;37.00;102207.19;16138087;19;129259;-65
2022/07/18 02:58:01;;;;;;;0.40;0.40;;;;;;;22.35;37.10;102216.44;16132920;19;129720;-65
2022/07/18 03:03:23;;;;;;;0.82;0.50;;;;;;;22.34;37.28;102211.94;16136557;19;131011;-65
2022/07/18 03:08:45;;;;;;;1.63;0.40;;;;;;;22.34;36.97;102199.97;16136957;19;129936;-65
2022/07/18 03:14:07;;;;;;;1.40;0.40;;;;;;;22.33;36.90;102196.31;16138226;19;130645;-65
2022/07/18 03:19:29;;;;;;;1.05;0.40;;;;;;;22.33;36.78;102195.47;16133283;19;129019;-65
2022/07/18 03:24:51;;;;;;;0.88;0.40;;;;;;;22.32;37.30;102193.78;16132841;19;129775;-65
2022/07/18 03:30:13;;;;;;;0.55;0.30;;;;;;;22.32;37.09;102193.78;16137714;19;129724;-65
2022/07/18 03:35:34;;;;;;;0.40;0.30;;;;;;;22.30;36.88;102191.19;16134754;19;129903;-65
2022/07/18 03:40:56;;;;;;;1.20;0.30;;;;;;;22.30;37.06;102188.41;16136060;19;130545;-65
2022/07/18 03:46:18;;;;;;;1.42;0.40;;;;;;;22.31;37.04;102175.34;16135759;19;130608;-65
2022/07/18 03:51:40;;;;;;;0.75;0.30;;;;;;;22.30;37.39;102182.00;16137050;19;130108;-65
2022/07/18 03:57:02;;;;;;;2.22;0.22;;;;;;;22.29;37.19;102186.72;16130473;19;130824;-65
2022/07/18 04:02:24;;;;;;;0.95;0.50;;;;;;;22.30;36.93;102187.59;16135371;19;130462;-65
2022/07/18 04:07:45;;;;;;;0.82;0.30;;;;;;;22.29;37.16;102195.06;16135603;19;129254;-65
2022/07/18 04:13:08;;;;;;;0.63;0.40;;;;;;;22.28;37.21;102188.66;16137509;19;129123;-65
2022/07/18 04:18:30;;;;;;;1.75;0.47;;;;;;;22.28;37.41;102185.88;16128669;19;130818;-66
2022/07/18 04:23:58;;;;;;;1.00;0.40;;;;;;;22.27;37.22;102181.38;16135684;19;130476;-65
2022/07/18 04:29:19;;;;;;;2.03;0.40;;;;;;;22.26;37.53;102174.13;16135168;19;129887;-65
2022/07/18 04:34:41;;;;;;;1.50;0.40;;;;;;;22.26;37.25;102164.91;16130397;19;129399;-65
2022/07/18 04:40:04;;;;;;;1.23;0.40;;;;;;;22.25;37.41;102168.78;16131104;19;129274;-65
2022/07/18 04:45:26;;;;;;;1.08;0.35;;;;;;;22.26;37.63;102167.72;16135709;19;130457;-65
2022/07/18 04:50:48;;;;;;;1.40;0.60;;;;;;;22.25;37.43;102163.22;16136729;19;130231;-66
2022/07/18 04:56:10;;;;;;;0.43;0.40;;;;;;;22.25;37.35;102155.69;16132241;19;131871;-65
2022/07/18 05:01:32;;;;;;;2.70;0.60;;;;;;;22.25;37.47;102152.06;16131319;19;129516;-66
2022/07/18 05:06:54;;;;;;;2.53;0.47;;;;;;;22.24;37.31;102155.94;16135069;19;128913;-66
2022/07/18 05:12:16;;;;;;;0.85;0.30;;;;;;;22.24;37.49;102167.94;16148998;19;129425;-61
2022/07/18 05:17:38;;;;;;;7.50;0.60;;;;;;;22.23;37.81;102168.19;16146435;19;129713;-62
2022/07/18 05:23:00;;;;;;;9.48;1.58;;;;;;;22.22;37.41;102167.31;16149254;19;129072;-63
2022/07/18 05:28:23;;;;;;;12.63;2.15;;;;;;;22.16;37.06;102167.38;16149025;19;131544;-63
2022/07/18 05:33:44;;;;;;;6.43;1.83;;;;;;;22.09;36.85;102171.16;16147786;19;129815;-63
2022/07/18 05:39:06;;;;;;;6.03;2.17;;;;;;;22.09;36.61;102171.16;16139278;19;130979;-63
2022/07/18 05:44:28;;;;;;;5.28;2.10;;;;;;;22.06;36.55;102171.63;16140256;19;129808;-61
2022/07/18 05:49:50;;;;;;;6.75;1.90;;;;;;;22.04;36.79;102172.97;16143692;19;129525;-62
2022/07/18 05:55:12;;;;;;;4.72;1.60;;;;;;;22.08;36.97;102180.59;16145943;19;129489;-61
2022/07/18 06:00:34;;;;;;;8.10;1.75;;;;;;;22.11;36.67;102180.13;16140219;19;129408;-61
2022/07/18 06:05:56;;;;;;;3.90;1.42;;;;;;;22.13;36.92;102177.97;16146892;19;129736;-61
2022/07/18 06:11:20;;;;;;;2.60;1.20;;;;;;;22.16;36.84;102179.41;16150597;19;128919;-61
2022/07/18 06:16:42;;;;;;;5.07;1.42;;;;;;;22.18;36.71;102188.38;16145543;19;130089;-61
2022/07/18 06:22:05;;;;;;;3.88;1.17;;;;;;;22.20;37.08;102185.34;16140589;19;130495;-61
2022/07/18 06:27:26;;;;;;;2.70;1.10;;;;;;;22.21;36.49;102175.94;16137238;19;129656;-61
2022/07/18 06:32:48;;;;;;;2.70;1.20;;;;;;;22.22;36.83;102181.25;16141668;19;129326;-61
2022/07/18 06:38:10;;;;;;;2.58;1.10;;;;;;;22.23;36.81;102174.59;16136478;19;129353;-61
2022/07/18 06:43:32;;;;;;;1.45;0.98;;;;;;;22.27;36.86;102177.78;16144522;19;129327;-61
2022/07/18 06:48:54;;;;;;;11.93;1.70;;;;;;;22.28;36.71;102185.00;16140269;19;129993;-62
2022/07/18 06:54:15;;;;;;;6.30;1.65;;;;;;;22.31;36.70;102178.97;16145737;19;130651;-61
2022/07/18 06:59:37;;;;;;;8.95;1.80;;;;;;;22.33;36.71;102176.78;16139319;19;129374;-61
2022/07/18 07:05:02;;;;;;;6.63;1.55;;;;;;;22.35;36.79;102163.47;16148373;19;132150;-61
2022/07/18 07:10:24;;;;;;;13.95;1.63;;;;;;;22.38;36.98;102162.97;16145293;19;129192;-61
2022/07/18 07:15:46;;;;;;;8.77;1.35;;;;;;;22.42;36.99;102168.91;16144236;19;130005;-60
2022/07/18 07:21:08;;;;;;;26.85;1.45;;;;;;;22.44;37.24;102150.84;16142865;19;128844;-61
2022/07/18 07:26:30;;;;;;;9.60;1.45;;;;;;;22.47;36.97;102162.59;16141491;19;129480;-61
2022/07/18 07:31:52;;;;;;;8.50;1.30;;;;;;;22.51;37.43;102161.03;16144758;19;129426;-60
2022/07/18 07:37:14;;;;;;;7.20;1.50;;;;;;;22.53;37.50;102158.84;16142824;19;129033;-60
2022/07/18 07:42:36;;;;;;;4.10;1.58;;;;;;;22.54;37.48;102154.97;16141761;19;129311;-61
2022/07/18 07:47:57;;;;;;;4.75;1.02;;;;;;;22.58;37.51;102145.03;16143238;19;129431;-61
2022/07/18 07:53:19;;;;;;;10.85;1.40;;;;;;;22.59;37.74;102152.28;16138506;19;131258;-61
2022/07/18 07:58:41;;;;;;;6.88;1.63;;;;;;;22.57;37.51;102143.31;16133070;19;130328;-61
2022/07/18 08:04:03;;;;;;;5.97;1.20;;;;;;;22.57;37.62;102141.41;16139003;19;131035;-61
2022/07/18 08:09:24;;;;;;;8.98;1.40;;;;;;;22.57;37.67;102130.25;16141104;19;130930;-62
2022/07/18 08:14:46;;;;;;;5.72;1.50;;;;;;;22.59;37.37;102135.56;16141768;19;129210;-61
2022/07/18 08:20:09;;;;;;;4.35;1.10;;;;;;;22.59;37.52;102135.56;16136034;19;129133;-61
2022/07/18 08:25:33;;;;;;;3.45;1.00;;;;;;;22.59;38.00;102130.00;16139405;19;129267;-62
2022/07/18 08:30:54;;;;;;;4.88;1.50;;;;;;;22.61;37.60;102132.53;16138491;19;129389;-61
2022/07/18 08:36:16;;;;;;;6.85;1.67;;;;;;;22.61;37.94;102121.38;16130753;19;129358;-61
2022/07/18 08:41:44;;;;;;;3.45;1.33;;;;;;;22.67;38.11;102124.03;16137055;19;129276;-62
2022/07/18 08:47:07;;;;;;;7.28;1.30;;;;;;;22.71;37.96;102127.16;16139059;19;129534;-68
2022/07/18 08:52:29;;;;;;;5.93;1.08;;;;;;;22.74;38.28;102116.38;16137897;19;129085;-66
2022/07/18 08:58:14;;;;;;;7.28;1.00;;;;;;;22.79;38.09;102121.22;16133891;19;131382;-66
2022/07/18 09:04:14;;;;;;;6.43;1.05;;;;;;;22.81;38.21;102115.38;16138236;19;129060;-68
2022/07/18 09:09:37;;;;;;;7.40;1.23;;;;;;;22.82;38.22;102123.53;16137365;19;129340;-66
2022/07/18 09:15:07;;;;;;;4.78;1.05;;;;;;;22.83;38.24;102121.56;16131287;19;128961;-66
2022/07/18 09:20:29;;;;;;;4.68;1.05;;;;;;;22.79;38.30;102131.53;16126930;19;130156;-68
2022/07/18 09:25:51;;;;;;;7.55;1.20;;;;;;;22.77;38.34;102133.72;16131337;19;129913;-61
2022/07/18 09:31:25;;;;;;;4.15;0.98;;;;;;;22.74;38.41;102127.53;16130410;19;129653;-62
2022/07/18 09:36:56;;;;;;;8.70;1.60;;;;;;;22.77;38.53;102114.19;16132543;19;129317;-61
2022/07/18 09:42:18;;;;;;;7.05;1.35;;;;;;;22.80;38.65;102119.28;16133550;19;129977;-62
2022/07/18 09:47:58;;;;;;;15.73;1.45;;;;;;;22.83;38.78;102127.16;16131627;19;129204;-62
2022/07/18 09:53:23;;;;;;;5.88;1.30;;;;;;;22.82;38.71;102115.16;16132428;19;130258;-62
2022/07/18 09:58:56;;;;;;;9.30;1.23;;;;;;;22.84;38.58;102120.47;16133439;19;129641;-62
2022/07/18 10:04:18;;;;;;;6.68;1.23;;;;;;;22.85;38.67;102128.59;16142769;19;128926;-62
2022/07/18 10:09:40;;;;;;;4.57;1.20;;;;;;;22.85;39.18;102128.59;16146628;19;130146;-62
2022/07/18 10:15:02;;;;;;;8.80;1.70;;;;;;;22.84;38.96;102126.06;16144248;19;129331;-64
2022/07/18 10:20:50;;;;;;;9.82;1.70;;;;;;;22.88;39.63;102116.13;16137639;19;130371;-64
2022/07/18 10:26:21;;;;;;;10.73;1.63;;;;;;;22.94;39.87;102120.72;16144074;19;130329;-62
2022/07/18 10:32:00;;;;;;;13.20;1.35;;;;;;;22.99;39.57;102115.25;16142277;19;130233;-63
2022/07/18 10:37:24;;;;;;;11.25;1.50;;;;;;;22.99;39.61;102112.47;16144234;19;129530;-63
2022/07/18 10:43:25;;;;;;;20.37;1.77;;;;;;;23.01;39.54;102101.91;16147579;19;129581;-63
2022/07/18 10:48:51;;;;;;;12.48;1.30;;;;;;;23.01;39.85;102107.50;16145403;19;129488;-62
2022/07/18 10:54:13;;;;;;;6.55;1.23;;;;;;;23.01;39.67;102101.91;16141693;19;130284;-63
2022/07/18 10:59:35;;;;;;;13.50;1.30;;;;;;;23.00;39.72;102097.44;16136010;19;129236;-62
2022/07/18 11:04:57;;;;;;;6.03;1.00;;;;;;;22.99;39.83;102097.66;16140530;19;130357;-63
2022/07/18 11:10:46;;;;;;;2.97;1.05;;;;;;;22.99;39.92;102087.34;16137608;19;129665;-62
2022/07/18 11:16:23;;;;;;;12.20;1.38;;;;;;;23.00;39.88;102082.59;16143788;19;129488;-62
2022/07/18 11:21:47;;;;;;;8.20;1.63;;;;;;;22.97;39.55;102081.16;16141592;19;129630;-62
2022/07/18 11:27:09;;;;;;;4.63;1.17;;;;;;;22.97;39.63;102083.97;16144189;19;129475;-62
2022/07/18 11:32:30;;;;;;;9.82;1.17;;;;;;;22.97;39.46;102083.09;16143853;19;129686;-62
2022/07/18 11:37:53;;;;;;;3.72;0.95;;;;;;;22.96;39.46;102079.47;16141584;19;129099;-61
2022/07/18 11:43:26;;;;;;;3.50;0.52;;;;;;;22.97;39.28;102070.00;16143424;19;129475;-62
2022/07/18 11:49:06;;;;;;;3.83;0.80;;;;;;;22.97;39.51;102070.00;16139716;19;129408;-62
2022/07/18 11:54:28;;;;;;;3.97;0.70;;;;;;;22.95;39.59;102060.19;16142951;19;129027;-62
2022/07/18 11:59:50;;;;;;;2.13;0.70;;;;;;;22.95;39.39;102052.66;16137636;19;129250;-62
2022/07/18 12:05:12;;;;;;;2.13;0.60;;;;;;;22.96;39.56;102045.97;16135540;19;129292;-62
2022/07/18 12:10:33;;;;;;;4.50;0.80;;;;;;;22.97;39.16;102035.66;16139841;19;129960;-62
2022/07/18 12:15:55;;;;;;;1.95;0.70;;;;;;;22.97;38.98;102028.16;16142854;19;129764;-62
2022/07/18 12:21:17;;;;;;;1.77;0.63;;;;;;;22.96;39.36;102023.66;16132772;19;128939;-62
2022/07/18 12:26:39;;;;;;;3.72;0.70;;;;;;;22.95;39.22;102021.97;16141391;19;129476;-63
2022/07/18 12:32:17;;;;;;;1.10;0.50;;;;;;;22.98;39.39;102021.47;16139609;19;128941;-62
2022/07/18 12:37:39;;;;;;;3.08;0.50;;;;;;;22.98;39.36;102013.09;16136783;19;129611;-63
2022/07/18 12:43:09;;;;;;;5.68;0.80;;;;;;;22.99;38.96;102013.94;16141408;19;129650;-62
2022/07/18 12:48:32;;;;;;;3.55;0.77;;;;;;;23.00;39.22;102010.03;16139368;19;129556;-62
2022/07/18 12:53:54;;;;;;;4.22;0.80;;;;;;;22.99;39.61;102008.34;16139968;19;132288;-62
2022/07/18 12:59:16;;;;;;;0.88;0.50;;;;;;;23.00;39.34;102001.69;16134717;19;129594;-62
2022/07/18 13:04:38;;;;;;;1.65;0.50;;;;;;;23.00;39.33;101994.16;16138842;19;129052;-62
2022/07/18 13:09:59;;;;;;;3.67;0.57;;;;;;;23.01;38.85;101987.50;16127645;19;130943;-61
2022/07/18 13:15:21;;;;;;;3.55;1.20;;;;;;;23.02;39.32;101980.78;16135804;19;131595;-62
2022/07/18 13:20:43;;;;;;;3.88;0.77;;;;;;;23.06;39.60;101978.38;16133660;19;129899;-62
2022/07/18 13:26:05;;;;;;;5.70;0.80;;;;;;;23.09;39.33;101974.22;16135345;19;129082;-62
2022/07/18 13:31:27;;;;;;;3.70;1.20;;;;;;;23.11;39.09;101972.84;16143501;19;130193;-62
2022/07/18 13:36:50;;;;;;;4.93;1.17;;;;;;;23.13;39.45;101969.81;16148062;19;129588;-62
2022/07/18 13:42:12;;;;;;;5.07;1.02;;;;;;;23.12;39.32;101960.59;16143022;19;130752;-62
2022/07/18 13:47:34;;;;;;;2.75;0.98;;;;;;;23.11;39.16;101967.28;16148682;19;129456;-62
2022/07/18 13:52:56;;;;;;;3.83;0.80;;;;;;;23.11;38.87;101958.91;16151617;19;130799;-62
2022/07/18 13:58:18;;;;;;;3.55;0.90;;;;;;;23.12;39.15;101954.19;16143278;19;130379;-62
2022/07/18 14:03:44;;;;;;;2.63;0.90;;;;;;;23.13;39.01;101947.50;16148893;19;129702;-61
2022/07/18 14:09:07;;;;;;;3.85;1.10;;;;;;;23.14;39.06;101941.66;16147092;19;129880;-61
2022/07/18 14:14:29;;;;;;;5.55;1.00;;;;;;;23.16;39.25;101938.59;16145880;19;129432;-62
2022/07/18 14:19:51;;;;;;;0.93;0.73;;;;;;;23.19;39.44;101932.53;16147996;19;129757;-59
2022/07/18 14:25:15;;;;;;;2.83;0.90;;;;;;;23.19;39.13;101922.22;16139874;19;130236;-62
2022/07/18 14:30:37;;;;;;;2.40;0.93;;;;;;;23.21;39.58;101921.94;16143853;19;129426;-61
2022/07/18 14:35:58;;;;;;;2.80;1.02;;;;;;;23.22;39.54;101915.25;16144190;19;129180;-61
2022/07/18 14:41:20;;;;;;;4.30;0.80;;;;;;;23.25;39.52;101911.97;16130825;19;129519;-63
2022/07/18 14:46:44;;;;;;;2.78;0.70;;;;;;;23.28;39.67;101916.19;16140952;19;130001;-63
2022/07/18 14:52:06;;;;;;;2.95;0.90;;;;;;;23.29;39.41;101921.50;16144371;19;129691;-63
2022/07/18 14:57:28;;;;;;;1.80;0.95;;;;;;;23.30;39.57;101916.78;16142771;19;129436;-63
2022/07/18 15:02:50;;;;;;;3.60;0.90;;;;;;;23.30;39.53;101916.78;16143026;19;129519;-63
2022/07/18 15:08:11;;;;;;;3.42;0.68;;;;;;;23.30;39.18;101917.63;16138374;19;130462;-62
2022/07/18 15:13:33;;;;;;;2.00;0.82;;;;;;;23.30;39.54;101916.78;16140337;19;130445;-62
2022/07/18 15:18:55;;;;;;;2.05;1.10;;;;;;;23.30;39.47;101909.25;16138527;19;129530;-62
2022/07/18 15:24:17;;;;;;;0.77;0.40;;;;;;;23.31;39.46;101910.94;16140211;19;129300;-62
2022/07/18 15:29:39;;;;;;;6.70;0.75;;;;;;;23.30;39.05;101906.47;16141195;19;129716;-62
2022/07/18 15:35:01;;;;;;;5.72;0.90;;;;;;;23.33;39.18;101905.94;16141832;19;129349;-62
2022/07/18 15:40:23;;;;;;;4.07;1.45;;;;;;;23.36;39.36;101899.00;16137981;19;128976;-62
2022/07/18 15:45:45;;;;;;;12.75;1.23;;;;;;;23.37;38.99;101894.28;16135483;19;130004;-62
2022/07/18 15:51:07;;;;;;;6.47;1.13;;;;;;;23.38;39.04;101885.63;16133690;19;129781;-61
2022/07/18 15:56:29;;;;;;;4.65;1.08;;;;;;;23.38;38.71;101877.25;16138622;19;129511;-62
2022/07/18 16:01:51;;;;;;;8.38;1.10;;;;;;;23.38;39.36;101871.69;16132454;19;129722;-62
2022/07/18 16:07:14;;;;;;;3.60;1.08;;;;;;;23.40;39.22;101868.63;16111160;19;129625;-64
2022/07/18 16:12:39;;;;;;;7.70;1.08;;;;;;;23.39;39.33;101862.19;16110652;19;130611;-62
2022/07/18 16:18:01;;;;;;;2.70;0.80;;;;;;;23.40;39.23;101857.44;16112360;19;130695;-62
2022/07/18 16:23:25;;;;;;;5.05;1.30;;;;;;;23.40;39.13;101846.28;16133549;19;130400;-62
2022/07/18 16:28:50;;;;;;;9.05;1.30;;;;;;;23.41;39.15;101846.03;16133746;19;130046;-62
2022/07/18 16:34:12;;;;;;;4.27;1.03;;;;;;;23.43;39.32;101837.41;16135563;19;132538;-63
2022/07/18 16:39:34;;;;;;;5.68;1.02;;;;;;;23.46;39.26;101834.94;16130081;19;128969;-63
2022/07/18 16:44:55;;;;;;;5.60;1.30;;;;;;;23.47;39.19;101833.00;16129587;19;131723;-63
2022/07/18 16:50:17;;;;;;;4.60;1.00;;;;;;;23.47;39.27;101828.25;16133700;19;129538;-63
2022/07/18 16:55:40;;;;;;;2.45;0.73;;;;;;;23.49;38.97;101825.22;16131348;19;129432;-63
2022/07/18 17:01:04;;;;;;;3.33;0.90;;;;;;;23.49;39.04;101814.88;16128259;19;129795;-63
2022/07/18 17:06:26;;;;;;;2.33;0.70;;;;;;;23.51;38.81;101814.59;16150767;19;129511;-63
2022/07/18 17:11:49;;;;;;;2.83;1.00;;;;;;;23.52;38.70;101819.09;16163168;19;130756;-63
2022/07/18 17:17:12;;;;;;;3.17;0.90;;;;;;;23.52;38.81;101816.28;16165734;19;129505;-63
2022/07/18 17:22:34;;;;;;;2.25;0.65;;;;;;;23.51;39.35;101817.38;16157401;19;130556;-62
2022/07/18 17:27:56;;;;;;;12.18;0.93;;;;;;;23.51;39.06;101806.22;16156636;19;129377;-50
2022/07/18 17:33:22;;;;;;;13.30;1.30;;;;;;;23.54;39.33;101802.09;16148566;19;130169;-52
2022/07/18 17:38:54;;;;;;;6.00;1.10;;;;;;;23.55;39.53;101798.19;16161977;19;129261;-49
2022/07/18 17:44:16;;;;;;;5.28;0.88;;;;;;;23.55;39.92;101801.81;16166109;19;130561;-49
2022/07/18 17:49:39;;;;;;;5.07;1.08;;;;;;;23.57;39.80;101799.63;16165002;19;129794;-47
2022/07/18 17:55:02;;;;;;;3.28;0.93;;;;;;;23.58;39.76;101795.75;16158109;19;129987;-50
2022/07/18 18:00:24;;;;;;;9.73;0.80;;;;;;;23.59;39.83;101791.00;16158880;19;129329;-48
2022/07/18 18:05:47;;;;;;;4.05;0.80;;;;;;;23.58;40.10;101787.38;16164496;19;130660;-48
2022/07/18 18:11:08;;;;;;;9.27;0.75;;;;;;;23.59;40.05;101791.84;16162914;19;130271;-50
2022/07/18 18:16:31;;;;;;;7.35;1.13;;;;;;;23.59;39.92;101780.69;16150444;19;129657;-47
2022/07/18 18:21:53;;;;;;;8.82;1.10;;;;;;;23.58;40.05;101779.00;16130557;19;131585;-53
2022/07/18 18:27:15;;;;;;;3.78;0.73;;;;;;;23.56;40.30;101774.75;16119297;19;129396;-51
2022/07/18 18:32:39;;;;;;;7.85;0.75;;;;;;;23.59;40.49;101785.41;16143890;19;128947;-51
2022/07/18 18:38:01;;;;;;;13.10;1.30;;;;;;;23.65;40.33;101778.81;16141523;19;129032;-51
2022/07/18 18:43:22;;;;;;;12.40;1.30;;;;;;;23.73;40.89;101780.28;16139790;19;128862;-51
2022/07/18 18:48:44;;;;;;;20.60;1.52;;;;;;;23.74;40.88;101785.59;16125009;19;129962;-53
2022/07/18 18:54:06;;;;;;;6.03;1.13;;;;;;;23.73;41.04;101780.28;16135815;19;130219;-51
2022/07/18 18:59:28;;;;;;;4.35;1.13;;;;;;;23.72;40.72;101778.59;16134103;19;129548;-48
2022/07/18 19:04:50;;;;;;;5.60;1.17;;;;;;;23.66;40.86;101770.16;16124366;19;130066;-51
2022/07/18 19:10:12;;;;;;;4.00;1.05;;;;;;;23.62;40.88;101769.00;16142621;19;130160;-53
2022/07/18 19:15:34;;;;;;;5.13;0.65;;;;;;;23.57;40.96;101766.09;16141692;19;130201;-50
2022/07/18 19:20:56;;;;;;;2.55;0.82;;;;;;;23.54;41.25;101765.78;16139811;19;129482;-52
2022/07/18 19:26:18;;;;;;;2.15;0.73;;;;;;;23.50;40.86;101771.03;16138908;19;129485;-54
2022/07/18 19:31:40;;;;;;;1.73;0.85;;;;;;;23.48;40.76;101779.66;16115847;19;129984;-53
2022/07/18 19:37:03;;;;;;;4.88;0.60;;;;;;;23.47;40.80;101771.56;16139275;19;130254;-51
2022/07/18 19:42:25;;;;;;;2.28;0.80;;;;;;;23.46;40.68;101784.66;16135641;19;128940;-52
2022/07/18 19:47:47;;;;;;;3.60;1.00;;;;;;;23.45;40.83;101784.94;16138392;19;129094;-53
2022/07/18 19:53:09;;;;;;;1.48;0.70;;;;;;;23.44;40.78;101777.66;16144141;19;129532;-53
2022/07/18 19:58:31;;;;;;;2.28;0.70;;;;;;;23.44;40.90;101788.81;16141538;19;129562;-53
2022/07/18 20:03:53;;;;;;;1.85;0.80;;;;;;;23.42;40.71;101791.03;16136722;19;128874;-53
2022/07/18 20:09:16;;;;;;;2.13;0.70;;;;;;;23.42;40.44;101796.59;16138402;19;129408;-49
2022/07/18 20:14:37;;;;;;;2.70;0.70;;;;;;;23.42;40.59;101788.22;16136085;19;130010;-52
2022/07/18 20:19:59;;;;;;;1.48;0.50;;;;;;;23.41;40.57;101789.34;16134720;19;129594;-54
2022/07/18 20:25:22;;;;;;;3.55;0.55;;;;;;;23.42;40.62;101793.81;16130551;19;129618;-53
2022/07/18 20:30:44;;;;;;;1.15;0.60;;;;;;;23.40;40.94;101793.22;16128041;19;129363;-52
2022/07/18 20:36:05;;;;;;;5.93;0.88;;;;;;;23.37;40.78;101793.75;16131456;19;130794;-49
2022/07/18 20:41:28;;;;;;;7.18;0.70;;;;;;;23.39;41.17;101794.31;16125722;19;130743;-49
2022/07/18 20:46:50;;;;;;;4.57;0.80;;;;;;;23.40;41.02;101788.50;16128134;19;130265;-50
2022/07/18 20:52:11;;;;;;;4.95;0.80;;;;;;;23.41;41.47;101795.78;16132057;19;130091;-53
2022/07/18 20:57:33;;;;;;;3.08;0.70;;;;;;;23.43;40.96;101792.72;16132937;19;129512;-48
2022/07/18 21:02:55;;;;;;;4.95;1.00;;;;;;;23.41;40.70;101789.34;16129191;19;130026;-48
2022/07/18 21:08:17;;;;;;;2.80;1.00;;;;;;;23.41;40.98;101792.97;16132353;19;129369;-52
2022/07/18 21:13:38;;;;;;;6.38;0.90;;;;;;;23.42;40.92;101793.81;16133391;19;130958;-49
2022/07/18 21:19:00;;;;;;;1.58;0.55;;;;;;;23.42;41.04;101796.59;16130905;19;131936;-52
2022/07/18 21:24:22;;;;;;;3.53;0.73;;;;;;;23.41;40.93;101790.19;16123124;19;129982;-47
2022/07/18 21:29:46;;;;;;;1.58;0.63;;;;;;;23.40;41.03;101798.81;16123384;19;129261;-53
2022/07/18 21:35:08;;;;;;;1.40;0.50;;;;;;;23.39;40.73;101794.31;16129525;19;130162;-50
2022/07/18 21:40:36;;;;;;;2.22;0.80;;;;;;;23.37;40.37;101788.19;16131793;19;129510;-51
2022/07/18 21:45:59;;;;;;;1.83;0.68;;;;;;;23.37;40.58;101789.00;16132044;19;130122;-52
2022/07/18 21:51:21;;;;;;;1.02;0.70;;;;;;;23.35;40.85;101778.13;16137922;19;129720;-52
2022/07/18 21:56:43;;;;;;;1.88;0.52;;;;;;;23.35;40.92;101772.53;16149334;19;129405;-52
2022/07/18 22:02:05;;;;;;;4.05;0.60;;;;;;;23.35;40.76;101786.50;16143189;19;128934;-52
2022/07/18 22:07:27;;;;;;;1.88;0.40;;;;;;;23.34;41.03;101787.59;16142975;19;130418;-53
2022/07/18 22:12:49;;;;;;;1.05;0.43;;;;;;;23.34;40.87;101778.34;16146827;19;129167;-53
2022/07/18 22:18:10;;;;;;;3.05;0.50;;;;;;;23.33;40.76;101771.94;16147862;19;131766;-51
2022/07/18 22:23:32;;;;;;;1.83;0.70;;;;;;;23.33;40.67;101774.72;16142399;19;129766;-50
2022/07/18 22:28:55;;;;;;;1.02;0.50;;;;;;;23.34;40.72;101770.84;16145709;19;129329;-51
2022/07/18 22:34:17;;;;;;;0.90;0.32;;;;;;;23.33;40.75;101774.72;16145358;19;128983;-54
2022/07/18 22:39:39;;;;;;;1.58;0.35;;;;;;;23.34;40.72;101779.22;16144206;19;129906;-55
2022/07/18 22:45:01;;;;;;;0.52;0.40;;;;;;;23.34;40.54;101778.34;16143021;19;129639;-58
2022/07/18 22:50:23;;;;;;;0.65;0.45;;;;;;;23.33;40.66;101771.94;16145110;19;130069;-54
2022/07/18 22:55:45;;;;;;;1.88;0.50;;;;;;;23.32;40.75;101769.41;16145604;19;129656;-54
2022/07/18 23:01:06;;;;;;;1.23;0.60;;;;;;;23.32;40.36;101766.63;16144053;19;129293;-55
2022/07/18 23:06:28;;;;;;;0.80;0.50;;;;;;;23.31;40.44;101762.97;16140083;19;129639;-49
2022/07/18 23:11:50;;;;;;;1.75;0.40;;;;;;;23.31;40.68;101765.75;16142790;19;129565;-49
2022/07/18 23:17:12;;;;;;;1.48;0.40;;;;;;;23.31;40.82;101757.38;16143431;19;130449;-50
2022/07/18 23:22:35;;;;;;;1.23;0.40;;;;;;;23.31;40.77;101762.13;16139504;19;129566;-52
2022/07/18 23:27:56;;;;;;;0.50;0.40;;;;;;;23.30;40.34;101743.69;16141345;19;129780;-51
2022/07/18 23:33:18;;;;;;;0.70;0.35;;;;;;;23.30;41.07;101744.53;16140786;19;129531;-48
2022/07/18 23:38:40;;;;;;;1.38;0.60;;;;;;;23.29;40.76;101737.25;16139907;19;129725;-50
2022/07/18 23:44:01;;;;;;;0.82;0.50;;;;;;;23.29;40.65;101734.47;16134253;19;129886;-52
2022/07/18 23:49:23;;;;;;;1.00;0.40;;;;;;;23.30;40.77;101730.56;16140505;19;129836;-50
2022/07/18 23:54:45;;;;;;;0.73;0.50;;;;;;;23.30;40.62;101729.72;16139051;19;128990;-51
